sensor_id;sensor_type;location;lat;lon;timestamp;pressure;altitude;pressure_sealevel;temperature;humidity
18500;BME280;9379;52.134;11.576;2023-07-24T00:01:19;99934.47;;;22.47;83.90
18500;BME280;9379;52.134;11.576;2023-07-24T00:03:47;99935.06;;;22.49;83.94
18500;BME280;9379;52.134;11.576;2023-07-24T00:06:13;99928.72;;;22.25;84.58
18500;BME280;9379;52.134;11.576;2023-07-24T00:08:40;99918.97;;;22.24;85.13
18500;BME280;9379;52.134;11.576;2023-07-24T00:11:07;99918.59;;;22.51;84.09
18500;BME280;9379;52.134;11.576;2023-07-24T00:13:34;99913.44;;;22.31;85.02
18500;BME280;9379;52.134;11.576;2023-07-24T00:16:00;99914.25;;;22.50;84.43
18500;BME280;9379;52.134;11.576;2023-07-24T00:18:32;99914.94;;;22.57;84.26
18500;BME280;9379;52.134;11.576;2023-07-24T00:21:00;99915.38;;;22.72;84.03
18500;BME280;9379;52.134;11.576;2023-07-24T00:23:27;99906.34;;;22.48;85.05
18500;BME280;9379;52.134;11.576;2023-07-24T00:25:53;99897.59;;;22.76;84.62
18500;BME280;9379;52.134;11.576;2023-07-24T00:28:20;99903.00;;;22.34;85.89
18500;BME280;9379;52.134;11.576;2023-07-24T00:30:47;99911.53;;;22.50;85.58
18500;BME280;9379;52.134;11.576;2023-07-24T00:33:14;99911.84;;;22.41;85.93
18500;BME280;9379;52.134;11.576;2023-07-24T00:35:40;99904.13;;;22.57;85.07
18500;BME280;9379;52.134;11.576;2023-07-24T00:38:08;99886.38;;;22.61;85.28
18500;BME280;9379;52.134;11.576;2023-07-24T00:40:35;99901.16;;;22.47;85.97
18500;BME280;9379;52.134;11.576;2023-07-24T00:43:02;99897.59;;;22.16;86.67
18500;BME280;9379;52.134;11.576;2023-07-24T00:45:29;99892.78;;;22.18;87.15
18500;BME280;9379;52.134;11.576;2023-07-24T00:47:56;99885.16;;;22.57;85.67
18500;BME280;9379;52.134;11.576;2023-07-24T00:50:23;99891.59;;;22.14;87.59
18500;BME280;9379;52.134;11.576;2023-07-24T00:52:50;99869.84;;;22.21;87.35
18500;BME280;9379;52.134;11.576;2023-07-24T00:55:19;99868.88;;;22.45;86.21
18500;BME280;9379;52.134;11.576;2023-07-24T00:57:45;99871.88;;;22.25;86.83
18500;BME280;9379;52.134;11.576;2023-07-24T01:00:13;99881.38;;;22.46;86.49
18500;BME280;9379;52.134;11.576;2023-07-24T01:02:39;99877.16;;;22.02;88.26
18500;BME280;9379;52.134;11.576;2023-07-24T01:05:07;99865.53;;;22.31;87.57
18500;BME280;9379;52.134;11.576;2023-07-24T01:07:35;99863.69;;;22.43;86.90
18500;BME280;9379;52.134;11.576;2023-07-24T01:10:02;99846.84;;;22.41;86.64
18500;BME280;9379;52.134;11.576;2023-07-24T01:12:33;99861.59;;;21.97;88.90
18500;BME280;9379;52.134;11.576;2023-07-24T01:15:07;99860.78;;;22.15;88.02
18500;BME280;9379;52.134;11.576;2023-07-24T01:17:40;99859.25;;;22.19;88.14
18500;BME280;9379;52.134;11.576;2023-07-24T01:20:11;99860.41;;;22.11;88.35
18500;BME280;9379;52.134;11.576;2023-07-24T01:22:39;99849.28;;;22.01;88.99
18500;BME280;9379;52.134;11.576;2023-07-24T01:25:18;99866.28;;;21.90;89.34
18500;BME280;9379;52.134;11.576;2023-07-24T01:27:50;99861.56;;;21.67;90.56
18500;BME280;9379;52.134;11.576;2023-07-24T01:30:19;99866.72;;;21.87;89.88
18500;BME280;9379;52.134;11.576;2023-07-24T01:32:46;99866.44;;;21.77;90.01
18500;BME280;9379;52.134;11.576;2023-07-24T01:35:12;99858.69;;;21.80;90.12
18500;BME280;9379;52.134;11.576;2023-07-24T01:37:43;99865.06;;;21.49;91.28
18500;BME280;9379;52.134;11.576;2023-07-24T01:40:10;99869.66;;;21.85;89.95
18500;BME280;9379;52.134;11.576;2023-07-24T01:42:38;99872.06;;;21.75;90.32
18500;BME280;9379;52.134;11.576;2023-07-24T01:45:07;99873.09;;;21.74;90.73
18500;BME280;9379;52.134;11.576;2023-07-24T01:47:34;99868.78;;;21.55;91.16
18500;BME280;9379;52.134;11.576;2023-07-24T01:50:01;99875.69;;;21.69;90.82
18500;BME280;9379;52.134;11.576;2023-07-24T01:52:28;99866.97;;;21.67;91.50
18500;BME280;9379;52.134;11.576;2023-07-24T01:54:54;99863.81;;;21.70;91.37
18500;BME280;9379;52.134;11.576;2023-07-24T01:57:21;99866.63;;;21.75;91.24
18500;BME280;9379;52.134;11.576;2023-07-24T01:59:48;99856.66;;;21.94;90.54
18500;BME280;9379;52.134;11.576;2023-07-24T02:02:16;99870.16;;;21.76;91.48
18500;BME280;9379;52.134;11.576;2023-07-24T02:04:43;99872.00;;;21.82;91.46
18500;BME280;9379;52.134;11.576;2023-07-24T02:07:10;99866.41;;;22.13;90.23
18500;BME280;9379;52.134;11.576;2023-07-24T02:09:36;99868.38;;;21.88;90.87
18500;BME280;9379;52.134;11.576;2023-07-24T02:12:04;99864.34;;;21.79;91.87
18500;BME280;9379;52.134;11.576;2023-07-24T02:14:31;99866.56;;;22.00;90.77
18500;BME280;9379;52.134;11.576;2023-07-24T02:16:57;99871.22;;;21.93;91.35
18500;BME280;9379;52.134;11.576;2023-07-24T02:19:25;99868.59;;;22.05;90.40
18500;BME280;9379;52.134;11.576;2023-07-24T02:21:52;99868.16;;;21.90;91.40
18500;BME280;9379;52.134;11.576;2023-07-24T02:24:19;99869.34;;;21.75;92.15
18500;BME280;9379;52.134;11.576;2023-07-24T02:26:46;99863.41;;;21.85;91.92
18500;BME280;9379;52.134;11.576;2023-07-24T02:29:12;99869.91;;;21.66;93.16
18500;BME280;9379;52.134;11.576;2023-07-24T02:31:39;99874.63;;;21.70;92.59
18500;BME280;9379;52.134;11.576;2023-07-24T02:34:06;99871.09;;;21.88;91.66
18500;BME280;9379;52.134;11.576;2023-07-24T02:36:34;99880.41;;;21.55;93.35
18500;BME280;9379;52.134;11.576;2023-07-24T02:39:01;99879.72;;;21.60;93.30
18500;BME280;9379;52.134;11.576;2023-07-24T02:41:28;99875.22;;;21.54;93.44
18500;BME280;9379;52.134;11.576;2023-07-24T02:43:55;99868.00;;;21.84;91.99
18500;BME280;9379;52.134;11.576;2023-07-24T02:46:21;99866.34;;;22.02;91.24
18500;BME280;9379;52.134;11.576;2023-07-24T02:48:49;99873.09;;;21.74;92.17
18500;BME280;9379;52.134;11.576;2023-07-24T02:51:16;99876.94;;;21.85;91.73
18500;BME280;9379;52.134;11.576;2023-07-24T02:53:44;99887.53;;;21.68;92.23
18500;BME280;9379;52.134;11.576;2023-07-24T02:56:11;99882.94;;;21.87;91.52
18500;BME280;9379;52.134;11.576;2023-07-24T02:58:38;99896.19;;;22.13;90.99
18500;BME280;9379;52.134;11.576;2023-07-24T03:01:05;99888.00;;;21.83;91.32
18500;BME280;9379;52.134;11.576;2023-07-24T03:03:32;99882.13;;;21.87;91.54
18500;BME280;9379;52.134;11.576;2023-07-24T03:05:59;99883.63;;;21.82;91.73
18500;BME280;9379;52.134;11.576;2023-07-24T03:08:26;99881.38;;;21.61;92.16
18500;BME280;9379;52.134;11.576;2023-07-24T03:10:54;99876.13;;;21.66;92.49
18500;BME280;9379;52.134;11.576;2023-07-24T03:13:21;99880.78;;;21.77;91.83
18500;BME280;9379;52.134;11.576;2023-07-24T03:15:52;99872.56;;;21.84;91.40
18500;BME280;9379;52.134;11.576;2023-07-24T03:18:19;99884.91;;;21.80;91.78
18500;BME280;9379;52.134;11.576;2023-07-24T03:20:46;99880.03;;;21.89;91.34
18500;BME280;9379;52.134;11.576;2023-07-24T03:23:13;99875.13;;;22.16;90.24
18500;BME280;9379;52.134;11.576;2023-07-24T03:25:39;99879.19;;;22.06;90.03
18500;BME280;9379;52.134;11.576;2023-07-24T03:28:08;99880.53;;;22.16;90.01
18500;BME280;9379;52.134;11.576;2023-07-24T03:30:34;99872.22;;;21.62;92.15
18500;BME280;9379;52.134;11.576;2023-07-24T03:33:01;99879.75;;;21.78;91.64
18500;BME280;9379;52.134;11.576;2023-07-24T03:35:28;99874.38;;;22.08;89.89
18500;BME280;9379;52.134;11.576;2023-07-24T03:37:55;99865.66;;;22.06;89.62
18500;BME280;9379;52.134;11.576;2023-07-24T03:40:25;99879.88;;;22.02;90.28
18500;BME280;9379;52.134;11.576;2023-07-24T03:42:51;99874.81;;;22.05;90.18
18500;BME280;9379;52.134;11.576;2023-07-24T03:45:20;99873.31;;;22.09;90.11
18500;BME280;9379;52.134;11.576;2023-07-24T03:47:46;99871.47;;;22.40;88.71
18500;BME280;9379;52.134;11.576;2023-07-24T03:50:13;99871.44;;;22.10;89.48
18500;BME280;9379;52.134;11.576;2023-07-24T03:52:40;99863.84;;;22.19;89.67
18500;BME280;9379;52.134;11.576;2023-07-24T03:55:07;99860.81;;;22.27;89.16
18500;BME280;9379;52.134;11.576;2023-07-24T03:57:34;99866.09;;;22.22;89.43
18500;BME280;9379;52.134;11.576;2023-07-24T04:00:04;99869.94;;;22.14;89.77
18500;BME280;9379;52.134;11.576;2023-07-24T04:02:33;99861.88;;;22.26;88.81
18500;BME280;9379;52.134;11.576;2023-07-24T04:05:00;99872.72;;;22.07;89.70
18500;BME280;9379;52.134;11.576;2023-07-24T04:07:26;99867.50;;;22.54;87.49
18500;BME280;9379;52.134;11.576;2023-07-24T04:09:53;99866.78;;;22.17;88.66
18500;BME280;9379;52.134;11.576;2023-07-24T04:12:20;99859.72;;;22.16;88.86
18500;BME280;9379;52.134;11.576;2023-07-24T04:14:47;99855.22;;;22.10;89.44
18500;BME280;9379;52.134;11.576;2023-07-24T04:17:14;99852.81;;;21.83;90.46
18500;BME280;9379;52.134;11.576;2023-07-24T04:19:42;99862.97;;;22.06;89.37
18500;BME280;9379;52.134;11.576;2023-07-24T04:22:09;99853.06;;;22.30;88.65
18500;BME280;9379;52.134;11.576;2023-07-24T04:24:36;99851.13;;;22.19;88.88
18500;BME280;9379;52.134;11.576;2023-07-24T04:27:03;99847.72;;;22.54;87.27
18500;BME280;9379;52.134;11.576;2023-07-24T04:29:30;99841.47;;;22.53;86.77
18500;BME280;9379;52.134;11.576;2023-07-24T04:31:56;99831.53;;;22.05;89.18
18500;BME280;9379;52.134;11.576;2023-07-24T04:34:23;99836.13;;;21.87;90.18
18500;BME280;9379;52.134;11.576;2023-07-24T04:36:51;99845.28;;;21.85;90.26
18500;BME280;9379;52.134;11.576;2023-07-24T04:39:18;99840.50;;;21.51;91.41
18500;BME280;9379;52.134;11.576;2023-07-24T04:41:45;99830.78;;;21.98;90.31
18500;BME280;9379;52.134;11.576;2023-07-24T04:44:11;99828.72;;;21.64;90.95
18500;BME280;9379;52.134;11.576;2023-07-24T04:46:38;99832.03;;;21.47;91.67
18500;BME280;9379;52.134;11.576;2023-07-24T04:49:05;99808.75;;;22.13;89.08
18500;BME280;9379;52.134;11.576;2023-07-24T04:51:31;99828.28;;;21.97;90.25
18500;BME280;9379;52.134;11.576;2023-07-24T04:54:00;99823.00;;;22.50;88.00
18500;BME280;9379;52.134;11.576;2023-07-24T04:56:26;99816.72;;;22.08;89.60
18500;BME280;9379;52.134;11.576;2023-07-24T04:58:53;99817.00;;;22.60;87.22
18500;BME280;9379;52.134;11.576;2023-07-24T05:01:20;99825.31;;;22.35;88.33
18500;BME280;9379;52.134;11.576;2023-07-24T05:03:46;99805.13;;;22.61;86.99
18500;BME280;9379;52.134;11.576;2023-07-24T05:06:13;99800.84;;;22.53;88.04
18500;BME280;9379;52.134;11.576;2023-07-24T05:08:40;99793.81;;;22.64;87.06
18500;BME280;9379;52.134;11.576;2023-07-24T05:11:08;99791.69;;;22.78;87.19
18500;BME280;9379;52.134;11.576;2023-07-24T05:13:35;99794.03;;;22.62;87.42
18500;BME280;9379;52.134;11.576;2023-07-24T05:16:01;99797.56;;;22.51;88.41
18500;BME280;9379;52.134;11.576;2023-07-24T05:18:28;99788.63;;;22.62;87.78
18500;BME280;9379;52.134;11.576;2023-07-24T05:20:55;99775.09;;;22.74;87.24
18500;BME280;9379;52.134;11.576;2023-07-24T05:23:21;99779.72;;;22.32;88.72
18500;BME280;9379;52.134;11.576;2023-07-24T05:28:24;99789.69;;;22.73;87.39
18500;BME280;9379;52.134;11.576;2023-07-24T05:30:51;99797.34;;;22.23;88.91
18500;BME280;9379;52.134;11.576;2023-07-24T05:33:18;99796.13;;;22.07;89.15
18500;BME280;9379;52.134;11.576;2023-07-24T05:35:45;99786.84;;;22.68;87.75
18500;BME280;9379;52.134;11.576;2023-07-24T05:38:11;99782.16;;;22.63;87.56
18500;BME280;9379;52.134;11.576;2023-07-24T05:40:38;99779.28;;;22.35;87.87
18500;BME280;9379;52.134;11.576;2023-07-24T05:43:05;99776.25;;;22.55;87.79
18500;BME280;9379;52.134;11.576;2023-07-24T05:45:33;99763.88;;;22.47;87.99
18500;BME280;9379;52.134;11.576;2023-07-24T05:47:59;99761.75;;;22.49;87.49
18500;BME280;9379;52.134;11.576;2023-07-24T05:50:26;99757.06;;;22.68;87.01
18500;BME280;9379;52.134;11.576;2023-07-24T05:52:53;99769.19;;;22.77;86.48
18500;BME280;9379;52.134;11.576;2023-07-24T05:55:20;99772.94;;;22.53;86.63
18500;BME280;9379;52.134;11.576;2023-07-24T05:57:46;99766.88;;;22.92;85.85
18500;BME280;9379;52.134;11.576;2023-07-24T06:00:13;99761.66;;;22.67;86.66
18500;BME280;9379;52.134;11.576;2023-07-24T06:02:42;99762.06;;;22.94;85.84
18500;BME280;9379;52.134;11.576;2023-07-24T06:05:08;99731.16;;;23.07;85.11
18500;BME280;9379;52.134;11.576;2023-07-24T06:07:35;99750.34;;;23.29;84.85
18500;BME280;9379;52.134;11.576;2023-07-24T06:10:02;99762.34;;;23.33;84.80
18500;BME280;9379;52.134;11.576;2023-07-24T06:12:29;99762.31;;;23.45;83.81
18500;BME280;9379;52.134;11.576;2023-07-24T06:14:56;99753.22;;;23.63;81.44
18500;BME280;9379;52.134;11.576;2023-07-24T06:17:22;99770.22;;;23.46;82.62
18500;BME280;9379;52.134;11.576;2023-07-24T06:19:50;99768.34;;;23.87;81.95
18500;BME280;9379;52.134;11.576;2023-07-24T06:22:17;99766.59;;;24.09;79.88
18500;BME280;9379;52.134;11.576;2023-07-24T06:24:44;99766.47;;;23.24;81.98
18500;BME280;9379;52.134;11.576;2023-07-24T06:27:11;99760.44;;;23.45;82.51
18500;BME280;9379;52.134;11.576;2023-07-24T06:29:37;99758.03;;;23.61;81.79
18500;BME280;9379;52.134;11.576;2023-07-24T06:32:05;99750.97;;;23.60;82.33
18500;BME280;9379;52.134;11.576;2023-07-24T06:34:32;99750.72;;;23.61;81.04
18500;BME280;9379;52.134;11.576;2023-07-24T06:37:00;99758.56;;;23.86;81.69
18500;BME280;9379;52.134;11.576;2023-07-24T06:39:27;99758.75;;;23.68;81.53
18500;BME280;9379;52.134;11.576;2023-07-24T06:41:54;99751.34;;;23.63;82.17
18500;BME280;9379;52.134;11.576;2023-07-24T06:44:21;99755.16;;;23.79;81.34
18500;BME280;9379;52.134;11.576;2023-07-24T06:46:48;99754.75;;;23.47;82.44
18500;BME280;9379;52.134;11.576;2023-07-24T06:49:15;99754.41;;;23.83;81.23
18500;BME280;9379;52.134;11.576;2023-07-24T06:51:42;99750.38;;;23.57;81.54
18500;BME280;9379;52.134;11.576;2023-07-24T06:54:10;99743.72;;;23.77;81.60
18500;BME280;9379;52.134;11.576;2023-07-24T06:56:36;99741.34;;;23.80;81.11
18500;BME280;9379;52.134;11.576;2023-07-24T06:59:03;99723.44;;;23.96;81.05
18500;BME280;9379;52.134;11.576;2023-07-24T07:01:30;99725.03;;;23.52;81.71
18500;BME280;9379;52.134;11.576;2023-07-24T07:03:57;99725.88;;;23.52;81.70
18500;BME280;9379;52.134;11.576;2023-07-24T07:06:23;99729.97;;;23.55;81.68
18500;BME280;9379;52.134;11.576;2023-07-24T07:08:50;99732.56;;;23.90;81.10
18500;BME280;9379;52.134;11.576;2023-07-24T07:11:18;99739.94;;;23.78;80.92
18500;BME280;9379;52.134;11.576;2023-07-24T07:13:45;99738.19;;;23.72;81.39
18500;BME280;9379;52.134;11.576;2023-07-24T07:16:12;99732.50;;;23.85;80.92
18500;BME280;9379;52.134;11.576;2023-07-24T07:18:38;99719.56;;;23.92;80.69
18500;BME280;9379;52.134;11.576;2023-07-24T07:21:05;99718.38;;;24.16;79.81
18500;BME280;9379;52.134;11.576;2023-07-24T07:23:32;99715.09;;;24.14;80.08
18500;BME280;9379;52.134;11.576;2023-07-24T07:25:59;99718.00;;;23.96;79.90
18500;BME280;9379;52.134;11.576;2023-07-24T07:28:27;99717.94;;;24.08;80.21
18500;BME280;9379;52.134;11.576;2023-07-24T07:30:54;99713.88;;;23.77;80.29
18500;BME280;9379;52.134;11.576;2023-07-24T07:33:21;99717.28;;;24.01;80.69
18500;BME280;9379;52.134;11.576;2023-07-24T07:35:48;99724.56;;;23.83;80.89
18500;BME280;9379;52.134;11.576;2023-07-24T07:38:14;99710.66;;;24.25;79.82
18500;BME280;9379;52.134;11.576;2023-07-24T07:40:41;99708.44;;;24.22;79.64
18500;BME280;9379;52.134;11.576;2023-07-24T07:43:08;99703.94;;;24.44;80.36
18500;BME280;9379;52.134;11.576;2023-07-24T07:45:36;99697.47;;;24.00;80.32
18500;BME280;9379;52.134;11.576;2023-07-24T07:48:03;99685.66;;;24.40;79.90
18500;BME280;9379;52.134;11.576;2023-07-24T07:50:30;99691.97;;;24.29;79.90
18500;BME280;9379;52.134;11.576;2023-07-24T07:52:57;99689.59;;;24.49;79.38
18500;BME280;9379;52.134;11.576;2023-07-24T07:55:24;99702.13;;;24.33;80.28
18500;BME280;9379;52.134;11.576;2023-07-24T07:57:50;99690.78;;;24.75;79.51
18500;BME280;9379;52.134;11.576;2023-07-24T08:00:20;99686.47;;;24.57;79.04
18500;BME280;9379;52.134;11.576;2023-07-24T08:02:48;99679.72;;;24.60;79.61
18500;BME280;9379;52.134;11.576;2023-07-24T08:05:15;99667.47;;;24.40;79.80
18500;BME280;9379;52.134;11.576;2023-07-24T08:07:42;99671.16;;;24.51;79.77
18500;BME280;9379;52.134;11.576;2023-07-24T08:10:09;99675.28;;;24.37;78.96
18500;BME280;9379;52.134;11.576;2023-07-24T08:12:36;99668.28;;;24.41;77.92
18500;BME280;9379;52.134;11.576;2023-07-24T08:15:03;99665.38;;;24.86;76.46
18500;BME280;9379;52.134;11.576;2023-07-24T08:17:30;99666.66;;;24.79;76.35
18500;BME280;9379;52.134;11.576;2023-07-24T08:19:58;99671.84;;;24.80;76.35
18500;BME280;9379;52.134;11.576;2023-07-24T08:22:24;99666.38;;;25.19;75.87
18500;BME280;9379;52.134;11.576;2023-07-24T08:24:51;99663.09;;;25.17;76.16
18500;BME280;9379;52.134;11.576;2023-07-24T08:27:18;99655.75;;;25.17;75.80
18500;BME280;9379;52.134;11.576;2023-07-24T08:29:45;99657.91;;;25.37;73.73
18500;BME280;9379;52.134;11.576;2023-07-24T08:32:11;99651.25;;;25.28;75.10
18500;BME280;9379;52.134;11.576;2023-07-24T08:34:38;99647.06;;;25.42;72.79
18500;BME280;9379;52.134;11.576;2023-07-24T08:37:06;99654.28;;;25.31;73.33
18500;BME280;9379;52.134;11.576;2023-07-24T08:39:33;99637.72;;;25.60;73.79
18500;BME280;9379;52.134;11.576;2023-07-24T08:42:08;99632.59;;;25.64;73.11
18500;BME280;9379;52.134;11.576;2023-07-24T08:44:34;99628.94;;;25.53;71.25
18500;BME280;9379;52.134;11.576;2023-07-24T08:47:03;99636.75;;;25.44;72.09
18500;BME280;9379;52.134;11.576;2023-07-24T08:49:30;99621.13;;;25.88;71.68
18500;BME280;9379;52.134;11.576;2023-07-24T08:52:00;99616.47;;;25.57;71.67
18500;BME280;9379;52.134;11.576;2023-07-24T08:54:30;99605.41;;;25.96;70.75
18500;BME280;9379;52.134;11.576;2023-07-24T08:56:56;99609.06;;;25.79;71.05
18500;BME280;9379;52.134;11.576;2023-07-24T08:59:23;99612.03;;;25.73;70.27
18500;BME280;9379;52.134;11.576;2023-07-24T09:01:50;99618.97;;;25.91;70.87
18500;BME280;9379;52.134;11.576;2023-07-24T09:04:17;99612.78;;;26.00;71.09
18500;BME280;9379;52.134;11.576;2023-07-24T09:06:45;99615.91;;;25.55;69.65
18500;BME280;9379;52.134;11.576;2023-07-24T09:09:12;99611.75;;;25.74;70.41
18500;BME280;9379;52.134;11.576;2023-07-24T09:11:48;99622.47;;;25.86;70.44
18500;BME280;9379;52.134;11.576;2023-07-24T09:14:22;99604.09;;;26.03;69.97
18500;BME280;9379;52.134;11.576;2023-07-24T09:16:49;99596.44;;;25.95;70.22
18500;BME280;9379;52.134;11.576;2023-07-24T09:19:19;99598.66;;;26.40;70.03
18500;BME280;9379;52.134;11.576;2023-07-24T09:21:46;99586.69;;;26.41;67.96
18500;BME280;9379;52.134;11.576;2023-07-24T09:24:14;99585.06;;;26.51;67.51
18500;BME280;9379;52.134;11.576;2023-07-24T09:26:49;99582.13;;;26.57;68.04
18500;BME280;9379;52.134;11.576;2023-07-24T09:29:17;99570.25;;;26.31;67.60
18500;BME280;9379;52.134;11.576;2023-07-24T09:31:44;99560.72;;;26.29;67.48
18500;BME280;9379;52.134;11.576;2023-07-24T09:34:16;99565.72;;;26.42;68.12
18500;BME280;9379;52.134;11.576;2023-07-24T09:36:43;99570.47;;;26.25;67.63
18500;BME280;9379;52.134;11.576;2023-07-24T09:39:10;99574.44;;;26.07;67.88
18500;BME280;9379;52.134;11.576;2023-07-24T09:41:37;99571.31;;;25.88;67.83
18500;BME280;9379;52.134;11.576;2023-07-24T09:44:05;99579.44;;;25.83;68.26
18500;BME280;9379;52.134;11.576;2023-07-24T09:46:32;99564.56;;;25.64;68.54
18500;BME280;9379;52.134;11.576;2023-07-24T09:48:59;99559.50;;;25.72;68.11
18500;BME280;9379;52.134;11.576;2023-07-24T09:51:29;99559.66;;;25.66;67.86
18500;BME280;9379;52.134;11.576;2023-07-24T09:53:59;99554.06;;;26.14;67.29
18500;BME280;9379;52.134;11.576;2023-07-24T09:56:27;99558.75;;;26.24;67.01
18500;BME280;9379;52.134;11.576;2023-07-24T09:58:56;99542.94;;;26.21;66.77
18500;BME280;9379;52.134;11.576;2023-07-24T10:01:43;99549.44;;;26.62;66.59
18500;BME280;9379;52.134;11.576;2023-07-24T10:04:11;99552.75;;;26.69;65.57
18500;BME280;9379;52.134;11.576;2023-07-24T10:06:39;99549.00;;;26.96;65.25
18500;BME280;9379;52.134;11.576;2023-07-24T10:09:07;99532.19;;;27.40;64.76
18500;BME280;9379;52.134;11.576;2023-07-24T10:11:34;99530.84;;;27.42;64.35
18500;BME280;9379;52.134;11.576;2023-07-24T10:14:01;99540.66;;;27.23;65.58
18500;BME280;9379;52.134;11.576;2023-07-24T10:16:28;99548.94;;;26.70;65.51
18500;BME280;9379;52.134;11.576;2023-07-24T10:18:56;99577.88;;;26.34;66.13
18500;BME280;9379;52.134;11.576;2023-07-24T10:21:26;99564.44;;;25.80;70.27
18500;BME280;9379;52.134;11.576;2023-07-24T10:23:53;99576.56;;;25.36;76.40
18500;BME280;9379;52.134;11.576;2023-07-24T10:26:24;99581.19;;;25.67;82.98
18500;BME280;9379;52.134;11.576;2023-07-24T10:28:51;99576.84;;;26.03;82.70
18500;BME280;9379;52.134;11.576;2023-07-24T10:31:22;99575.47;;;26.38;81.17
18500;BME280;9379;52.134;11.576;2023-07-24T10:33:50;99570.69;;;27.33;75.06
18500;BME280;9379;52.134;11.576;2023-07-24T10:36:20;99576.91;;;27.18;75.63
18500;BME280;9379;52.134;11.576;2023-07-24T10:38:52;99567.50;;;26.84;76.89
18500;BME280;9379;52.134;11.576;2023-07-24T10:41:19;99570.69;;;27.38;72.30
18500;BME280;9379;52.134;11.576;2023-07-24T10:43:48;99571.50;;;27.64;72.50
18500;BME280;9379;52.134;11.576;2023-07-24T10:46:17;99573.69;;;27.52;71.45
18500;BME280;9379;52.134;11.576;2023-07-24T10:48:45;99566.84;;;28.26;69.42
18500;BME280;9379;52.134;11.576;2023-07-24T10:51:12;99565.47;;;27.31;71.35
18500;BME280;9379;52.134;11.576;2023-07-24T10:53:44;99573.47;;;27.69;68.33
18500;BME280;9379;52.134;11.576;2023-07-24T10:56:11;99558.13;;;28.13;68.44
18500;BME280;9379;52.134;11.576;2023-07-24T10:58:38;99545.53;;;28.38;67.41
18500;BME280;9379;52.134;11.576;2023-07-24T11:01:06;99553.88;;;28.72;67.30
18500;BME280;9379;52.134;11.576;2023-07-24T11:03:35;99531.19;;;28.66;66.86
18500;BME280;9379;52.134;11.576;2023-07-24T11:06:03;99548.09;;;28.78;67.14
18500;BME280;9379;52.134;11.576;2023-07-24T11:08:30;99546.09;;;28.30;67.41
18500;BME280;9379;52.134;11.576;2023-07-24T11:10:59;99535.44;;;28.13;66.86
18500;BME280;9379;52.134;11.576;2023-07-24T11:13:28;99545.03;;;28.00;67.24
18500;BME280;9379;52.134;11.576;2023-07-24T11:15:55;99537.41;;;27.46;70.24
18500;BME280;9379;52.134;11.576;2023-07-24T11:18:22;99542.34;;;27.75;67.53
18500;BME280;9379;52.134;11.576;2023-07-24T11:20:53;99532.22;;;27.90;67.61
18500;BME280;9379;52.134;11.576;2023-07-24T11:23:20;99527.72;;;28.51;66.08
18500;BME280;9379;52.134;11.576;2023-07-24T11:25:50;99528.19;;;29.22;66.31
18500;BME280;9379;52.134;11.576;2023-07-24T11:28:19;99525.50;;;29.51;63.95
18500;BME280;9379;52.134;11.576;2023-07-24T11:30:46;99521.09;;;29.84;63.46
18500;BME280;9379;52.134;11.576;2023-07-24T11:33:15;99531.16;;;29.65;64.63
18500;BME280;9379;52.134;11.576;2023-07-24T11:35:42;99531.63;;;29.72;63.99
18500;BME280;9379;52.134;11.576;2023-07-24T11:38:09;99537.53;;;29.84;62.56
18500;BME280;9379;52.134;11.576;2023-07-24T11:40:38;99530.50;;;29.78;62.29
18500;BME280;9379;52.134;11.576;2023-07-24T11:43:05;99533.31;;;29.68;64.87
18500;BME280;9379;52.134;11.576;2023-07-24T11:45:43;99533.13;;;29.88;62.68
18500;BME280;9379;52.134;11.576;2023-07-24T11:48:10;99539.50;;;29.50;62.74
18500;BME280;9379;52.134;11.576;2023-07-24T11:50:42;99539.72;;;28.55;64.43
18500;BME280;9379;52.134;11.576;2023-07-24T11:53:18;99526.25;;;29.23;62.76
18500;BME280;9379;52.134;11.576;2023-07-24T11:55:45;99523.78;;;29.66;63.85
18500;BME280;9379;52.134;11.576;2023-07-24T11:58:14;99522.25;;;29.10;63.33
18500;BME280;9379;52.134;11.576;2023-07-24T12:00:45;99519.66;;;29.63;62.56
18500;BME280;9379;52.134;11.576;2023-07-24T12:03:12;99513.53;;;30.29;61.62
18500;BME280;9379;52.134;11.576;2023-07-24T12:05:39;99499.06;;;30.47;62.21
18500;BME280;9379;52.134;11.576;2023-07-24T12:08:07;99488.03;;;30.53;60.56
18500;BME280;9379;52.134;11.576;2023-07-24T12:10:36;99490.13;;;30.61;62.20
18500;BME280;9379;52.134;11.576;2023-07-24T12:13:04;99480.91;;;30.04;61.35
18500;BME280;9379;52.134;11.576;2023-07-24T12:15:31;99477.38;;;29.45;64.17
18500;BME280;9379;52.134;11.576;2023-07-24T12:18:00;99470.94;;;29.60;61.73
18500;BME280;9379;52.134;11.576;2023-07-24T12:20:28;99457.00;;;30.14;60.69
18500;BME280;9379;52.134;11.576;2023-07-24T12:22:55;99456.66;;;29.68;60.23
18500;BME280;9379;52.134;11.576;2023-07-24T12:25:23;99454.13;;;28.64;61.47
18500;BME280;9379;52.134;11.576;2023-07-24T12:27:49;99452.16;;;28.70;62.76
18500;BME280;9379;52.134;11.576;2023-07-24T12:30:16;99446.81;;;28.94;64.28
18500;BME280;9379;52.134;11.576;2023-07-24T12:32:44;99458.75;;;28.64;65.46
18500;BME280;9379;52.134;11.576;2023-07-24T12:35:12;99450.16;;;28.81;64.60
18500;BME280;9379;52.134;11.576;2023-07-24T12:37:39;99446.34;;;28.32;65.68
18500;BME280;9379;52.134;11.576;2023-07-24T12:40:07;99452.97;;;28.06;64.57
18500;BME280;9379;52.134;11.576;2023-07-24T12:42:34;99449.78;;;27.73;65.51
18500;BME280;9379;52.134;11.576;2023-07-24T12:45:01;99451.69;;;27.83;66.24
18500;BME280;9379;52.134;11.576;2023-07-24T12:47:29;99440.53;;;28.44;65.55
18500;BME280;9379;52.134;11.576;2023-07-24T12:49:56;99444.03;;;28.60;64.95
18500;BME280;9379;52.134;11.576;2023-07-24T12:52:26;99432.41;;;28.24;64.80
18500;BME280;9379;52.134;11.576;2023-07-24T12:54:53;99429.66;;;28.39;65.46
18500;BME280;9379;52.134;11.576;2023-07-24T12:57:20;99429.03;;;28.52;64.66
18500;BME280;9379;52.134;11.576;2023-07-24T12:59:46;99433.53;;;28.17;66.75
18500;BME280;9379;52.134;11.576;2023-07-24T13:02:13;99434.47;;;27.93;66.32
18500;BME280;9379;52.134;11.576;2023-07-24T13:04:40;99429.53;;;27.89;66.34